createdAt,value
2022-12-05T00:03:34.264Z,6.27
2022-12-05T00:08:35.984Z,6.16
2022-12-05T00:13:39.984Z,6.10
2022-12-05T00:18:42.493Z,6.14
2022-12-05T00:23:44.684Z,6.21
2022-12-05T00:28:46.686Z,6.20
2022-12-05T00:33:49.296Z,6.27
2022-12-05T00:38:51.871Z,6.30
2022-12-05T00:43:54.880Z,6.17
2022-12-05T00:48:58.516Z,6.17
2022-12-05T00:54:02.503Z,6.01
2022-12-05T00:59:05.595Z,6.14
2022-12-05T01:04:11.574Z,6.26
2022-12-05T01:09:15.751Z,6.30
2022-12-05T01:14:19.903Z,6.20
2022-12-05T01:19:24.890Z,6.41
2022-12-05T01:24:28.928Z,6.52
2022-12-05T01:29:30.735Z,6.50
2022-12-05T01:34:32.457Z,6.09
2022-12-05T01:39:34.164Z,6.39
2022-12-05T01:44:35.819Z,6.36
2022-12-05T01:49:41.315Z,6.64
2022-12-05T01:54:46.029Z,6.52
2022-12-05T01:59:52.884Z,6.13
2022-12-05T02:04:57.518Z,6.39
2022-12-05T02:09:59.730Z,6.61
2022-12-05T02:15:22.860Z,6.51
2022-12-05T02:20:49.196Z,6.66
2022-12-05T02:25:56.707Z,6.42
2022-12-05T02:31:08.790Z,6.58
2022-12-05T02:36:14.575Z,6.69
2022-12-05T02:41:34.104Z,6.69
2022-12-05T02:46:39.393Z,6.70
2022-12-05T02:51:53.126Z,6.71
2022-12-05T02:56:56.756Z,6.55
2022-12-05T03:01:58.481Z,6.31
2022-12-05T03:07:05.114Z,6.59
2022-12-05T03:12:13.148Z,6.49
2022-12-05T03:17:19.099Z,6.49
2022-12-05T03:22:35.668Z,6.69
2022-12-05T03:27:52.381Z,6.46
2022-12-05T03:33:03.777Z,6.39
2022-12-05T03:38:05.394Z,6.35
2022-12-05T03:43:14.736Z,6.55
2022-12-05T03:48:44.238Z,6.41
2022-12-05T03:53:56.252Z,6.61
2022-12-05T03:59:34.715Z,6.76
2022-12-05T04:04:40.665Z,6.78
2022-12-05T04:09:50.246Z,6.77
2022-12-05T04:14:59.423Z,6.72
2022-12-05T04:20:24.062Z,6.74
2022-12-05T04:25:34.166Z,6.83
2022-12-05T04:30:43.109Z,6.79
2022-12-05T04:35:53.098Z,6.60
2022-12-05T04:41:01.493Z,6.64
2022-12-05T04:46:07.203Z,6.76
2022-12-05T04:51:17.422Z,6.57
2022-12-05T04:56:22.653Z,6.73
2022-12-05T05:01:38.513Z,6.56
2022-12-05T05:06:41.394Z,6.65
2022-12-05T05:11:43.144Z,6.63
2022-12-05T05:16:44.923Z,6.58
2022-12-05T05:21:46.646Z,6.58
2022-12-05T05:26:52.477Z,6.54
2022-12-05T05:31:57.243Z,6.66
2022-12-05T05:36:58.950Z,6.48
2022-12-05T05:42:00.637Z,6.54
2022-12-05T05:47:02.347Z,6.59
2022-12-05T05:52:04.217Z,6.38
2022-12-05T05:57:05.878Z,6.16
2022-12-05T06:02:07.626Z,6.26
2022-12-05T06:07:09.302Z,6.44
2022-12-05T06:12:11.009Z,6.43
2022-12-05T06:17:12.676Z,6.51
2022-12-05T06:22:14.410Z,6.17
2022-12-05T06:27:16.079Z,6.55
2022-12-05T06:32:17.739Z,6.08
2022-12-05T06:37:19.423Z,6.36
2022-12-05T06:42:22.446Z,6.42
2022-12-05T06:47:24.156Z,6.19
2022-12-05T06:52:25.834Z,6.20
2022-12-05T06:57:31.293Z,6.31
2022-12-05T07:02:33.180Z,6.25
2022-12-05T07:07:35.014Z,6.68
2022-12-05T07:12:36.815Z,6.61
2022-12-05T07:17:39.202Z,6.48
2022-12-05T07:22:40.913Z,6.45
2022-12-05T07:27:42.598Z,6.42
2022-12-05T07:32:44.344Z,6.59
2022-12-05T07:37:46.044Z,6.52
2022-12-05T07:42:53.470Z,6.40
2022-12-05T07:47:55.240Z,6.55
2022-12-05T07:52:57.041Z,6.21
2022-12-05T07:57:58.716Z,6.59
2022-12-05T08:03:03.298Z,6.61
2022-12-05T08:08:05.494Z,6.65
2022-12-05T08:13:08.531Z,7.07
2022-12-05T08:18:11.485Z,6.85
2022-12-05T08:23:13.151Z,6.89
2022-12-05T08:28:14.816Z,6.81
2022-12-05T08:33:16.507Z,6.85
2022-12-05T08:38:18.214Z,6.98
2022-12-05T08:43:19.896Z,7.30
2022-12-05T08:48:27.549Z,7.26
2022-12-05T08:53:30.820Z,7.34
2022-12-05T08:58:32.620Z,7.34
2022-12-05T09:03:34.455Z,7.38
2022-12-05T09:08:36.819Z,7.12
2022-12-05T09:13:38.993Z,6.78
2022-12-05T09:18:41.137Z,6.99
2022-12-05T09:23:44.240Z,6.87
2022-12-05T09:28:46.037Z,6.68
2022-12-05T09:33:49.058Z,6.68
2022-12-05T09:38:52.038Z,6.75
2022-12-05T09:44:12.987Z,6.72
2022-12-05T09:49:14.696Z,6.80
2022-12-05T09:54:17.135Z,6.71
2022-12-05T09:59:20.642Z,6.78
2022-12-05T10:04:46.484Z,6.78
2022-12-05T10:09:56.881Z,6.91
2022-12-05T10:15:13.205Z,6.77
2022-12-05T10:20:28.815Z,6.88
2022-12-05T10:25:32.468Z,6.78
2022-12-05T10:30:36.897Z,6.71
2022-12-05T10:35:40.496Z,6.65
2022-12-05T10:40:46.984Z,6.57
2022-12-05T10:45:48.710Z,6.66
2022-12-05T10:50:56.239Z,6.83
2022-12-05T10:56:29.427Z,6.76
2022-12-05T11:01:19.911Z,6.83
2022-12-05T11:06:28.407Z,6.84
2022-12-05T11:11:35.441Z,6.84
2022-12-05T11:16:38.927Z,6.73
2022-12-05T11:21:44.190Z,6.69
2022-12-05T11:26:46.041Z,6.73
2022-12-05T11:31:52.318Z,6.71
2022-12-05T11:37:04.976Z,6.77
2022-12-05T11:42:15.816Z,6.82
2022-12-05T11:47:49.800Z,6.81
2022-12-05T11:53:22.123Z,6.84
2022-12-05T11:58:25.369Z,6.92
2022-12-05T12:03:54.864Z,6.94
2022-12-05T12:09:12.897Z,7.02
2022-12-05T12:14:25.991Z,7.02
2022-12-05T12:19:54.153Z,6.86
2022-12-05T12:25:03.150Z,6.94
2022-12-05T12:30:15.130Z,6.89
2022-12-05T12:35:32.268Z,7.00
2022-12-05T12:40:59.611Z,7.04
2022-12-05T12:46:16.578Z,6.95
2022-12-05T12:51:18.299Z,7.00
2022-12-05T12:56:25.848Z,6.89
2022-12-05T13:01:34.146Z,7.00
2022-12-05T13:06:39.830Z,6.99
2022-12-05T13:11:46.278Z,7.01
2022-12-05T13:16:52.169Z,7.02
2022-12-05T13:21:57.411Z,6.97
2022-12-05T13:27:02.625Z,6.98
2022-12-05T13:32:05.670Z,6.99
2022-12-05T13:37:36.355Z,7.24
2022-12-05T13:42:38.514Z,7.46
2022-12-05T13:47:46.285Z,7.29
2022-12-05T13:52:52.214Z,7.21
2022-12-05T13:57:57.391Z,7.23
2022-12-05T14:03:16.345Z,7.09
2022-12-05T14:08:35.965Z,7.11
2022-12-05T14:13:43.558Z,6.71
2022-12-05T14:19:05.892Z,6.71
2022-12-05T14:24:27.061Z,6.94
2022-12-05T14:29:37.415Z,6.66
2022-12-05T14:34:54.992Z,6.83
2022-12-05T14:40:00.201Z,6.88
2022-12-05T14:45:21.640Z,6.92
2022-12-05T14:50:32.522Z,6.54
2022-12-05T14:55:36.356Z,6.70
2022-12-05T15:00:38.325Z,6.58
2022-12-05T15:05:43.344Z,6.64
2022-12-05T15:10:45.809Z,6.61
2022-12-05T15:16:06.423Z,6.66
2022-12-05T15:21:21.187Z,6.59
2022-12-05T15:26:55.238Z,6.51
2022-12-05T15:32:25.689Z,6.49
2022-12-05T15:37:51.444Z,6.44
2022-12-05T15:42:57.631Z,6.34
2022-12-05T15:48:02.413Z,6.38
2022-12-05T15:53:34.806Z,6.42
2022-12-05T15:58:47.813Z,6.40
2022-12-05T16:04:00.066Z,6.62
2022-12-05T16:09:10.110Z,6.47
2022-12-05T16:14:18.261Z,6.31
2022-12-05T16:19:32.954Z,6.45
2022-12-05T16:24:48.447Z,6.46
2022-12-05T16:30:29.839Z,6.38
2022-12-05T16:35:36.120Z,6.54
2022-12-05T16:40:57.331Z,6.45
2022-12-05T16:46:28.111Z,6.30
2022-12-05T16:51:40.653Z,6.29
2022-12-05T16:56:42.326Z,6.30
2022-12-05T17:01:43.991Z,6.29
2022-12-05T17:06:45.719Z,6.36
2022-12-05T17:11:51.007Z,6.34
2022-12-05T17:16:52.668Z,6.42
2022-12-05T17:21:54.767Z,6.24
2022-12-05T17:26:56.418Z,6.31
2022-12-05T17:31:58.190Z,6.40
2022-12-05T17:37:00.342Z,6.43
2022-12-05T17:42:02.409Z,6.48
2022-12-05T17:47:07.933Z,6.42
2022-12-05T17:52:26.617Z,6.54
2022-12-05T17:57:28.291Z,6.60
2022-12-05T18:02:29.946Z,6.38
2022-12-05T18:07:31.672Z,6.34
2022-12-05T18:12:34.090Z,6.14
2022-12-05T18:17:35.955Z,6.39
2022-12-05T18:22:37.667Z,6.02
2022-12-05T18:27:39.397Z,6.06
2022-12-05T18:32:41.119Z,5.96
2022-12-05T18:37:42.800Z,5.62
2022-12-05T18:42:44.460Z,5.72
2022-12-05T18:47:46.120Z,5.71
2022-12-05T18:52:47.865Z,5.95
2022-12-05T18:57:49.595Z,5.63
2022-12-05T19:02:52.207Z,5.51
2022-12-05T19:07:54.414Z,5.68
2022-12-05T19:12:57.141Z,5.49
2022-12-05T19:17:58.799Z,5.53
2022-12-05T19:23:01.161Z,5.78
2022-12-05T19:28:03.299Z,5.51
2022-12-05T19:33:04.976Z,5.57
2022-12-05T19:38:06.636Z,5.37
2022-12-05T19:43:08.318Z,5.56
2022-12-05T19:48:09.979Z,5.86
2022-12-05T19:53:12.437Z,5.65
2022-12-05T19:58:14.140Z,5.57
2022-12-05T20:03:15.937Z,5.63
2022-12-05T20:08:17.712Z,5.54
2022-12-05T20:13:45.452Z,5.32
2022-12-05T20:18:42.326Z,5.44
2022-12-05T20:23:44.054Z,5.14
2022-12-05T20:28:46.323Z,5.06
2022-12-05T20:33:50.813Z,5.04
2022-12-05T20:39:01.938Z,5.04
2022-12-05T20:44:07.329Z,5.21
2022-12-05T20:49:09.469Z,5.27
2022-12-05T20:54:16.647Z,5.37
2022-12-05T20:59:18.309Z,5.24
2022-12-05T21:04:20.081Z,5.35
2022-12-05T21:09:30.069Z,5.32
2022-12-05T21:14:34.232Z,5.43
2022-12-05T21:19:35.976Z,5.36
2022-12-05T21:24:37.638Z,5.16
2022-12-05T21:29:39.302Z,5.38
2022-12-05T21:34:40.999Z,5.00
2022-12-05T21:39:42.790Z,5.06
2022-12-05T21:44:44.468Z,5.15
2022-12-05T21:49:46.136Z,5.24
2022-12-05T21:54:48.092Z,5.37
2022-12-05T21:59:49.757Z,5.37
2022-12-05T22:04:51.480Z,5.33
2022-12-05T22:09:53.218Z,5.10
2022-12-05T22:14:54.958Z,4.87
2022-12-05T22:19:57.446Z,4.90
2022-12-05T22:24:59.698Z,4.75
2022-12-05T22:30:01.831Z,4.90
2022-12-05T22:35:04.530Z,4.95
2022-12-05T22:40:07.023Z,5.21
2022-12-05T22:45:09.198Z,5.10
2022-12-05T22:50:11.113Z,4.99
2022-12-05T22:55:12.790Z,5.09
2022-12-05T23:00:15.165Z,5.10
2022-12-05T23:05:16.957Z,5.07
2022-12-05T23:10:18.730Z,5.04
2022-12-05T23:15:20.467Z,5.04
2022-12-05T23:20:22.219Z,4.93
2022-12-05T23:25:23.950Z,4.88
2022-12-05T23:30:25.703Z,4.89
2022-12-05T23:35:27.433Z,4.89
2022-12-05T23:40:29.181Z,4.97
2022-12-05T23:45:30.906Z,4.99
2022-12-05T23:50:32.797Z,4.90
2022-12-05T23:55:34.720Z,5.01
